sensor_id;sensor_type;location;lat;lon;timestamp;P1;durP1;ratioP1;P2;durP2;ratioP2
61840;SDS011;47773;53.174;6.614;2022-12-16T00:00:25;31.40;;;18.15;;
61840;SDS011;47773;53.174;6.614;2022-12-16T00:02:51;32.53;;;19.15;;
61840;SDS011;47773;53.174;6.614;2022-12-16T00:05:16;34.22;;;18.63;;
61840;SDS011;47773;53.174;6.614;2022-12-16T00:07:44;31.08;;;18.00;;
61840;SDS011;47773;53.174;6.614;2022-12-16T00:10:11;30.85;;;17.77;;
61840;SDS011;47773;53.174;6.614;2022-12-16T00:12:36;34.55;;;17.60;;
61840;SDS011;47773;53.174;6.614;2022-12-16T00:15:02;32.35;;;18.90;;
61840;SDS011;47773;53.174;6.614;2022-12-16T00:17:28;32.25;;;18.40;;
61840;SDS011;47773;53.174;6.614;2022-12-16T00:19:54;32.83;;;18.83;;
61840;SDS011;47773;53.174;6.614;2022-12-16T00:22:19;36.67;;;19.33;;
61840;SDS011;47773;53.174;6.614;2022-12-16T00:24:45;34.15;;;18.55;;
61840;SDS011;47773;53.174;6.614;2022-12-16T00:27:11;33.25;;;18.45;;
61840;SDS011;47773;53.174;6.614;2022-12-16T00:29:36;33.58;;;18.95;;
61840;SDS011;47773;53.174;6.614;2022-12-16T00:32:02;36.40;;;17.85;;
61840;SDS011;47773;53.174;6.614;2022-12-16T00:34:28;32.60;;;17.92;;
61840;SDS011;47773;53.174;6.614;2022-12-16T00:36:53;42.58;;;19.10;;
61840;SDS011;47773;53.174;6.614;2022-12-16T00:39:19;33.83;;;17.58;;
61840;SDS011;47773;53.174;6.614;2022-12-16T00:41:45;36.50;;;17.27;;
61840;SDS011;47773;53.174;6.614;2022-12-16T00:44:11;33.60;;;18.42;;
61840;SDS011;47773;53.174;6.614;2022-12-16T00:46:37;28.65;;;16.60;;
61840;SDS011;47773;53.174;6.614;2022-12-16T00:49:05;30.35;;;16.60;;
61840;SDS011;47773;53.174;6.614;2022-12-16T00:51:30;29.77;;;15.30;;
61840;SDS011;47773;53.174;6.614;2022-12-16T00:53:56;25.50;;;12.70;;
61840;SDS011;47773;53.174;6.614;2022-12-16T00:56:22;24.08;;;14.38;;
61840;SDS011;47773;53.174;6.614;2022-12-16T00:58:47;22.15;;;10.95;;
61840;SDS011;47773;53.174;6.614;2022-12-16T01:01:13;17.98;;;10.50;;
61840;SDS011;47773;53.174;6.614;2022-12-16T01:03:39;19.77;;;10.15;;
61840;SDS011;47773;53.174;6.614;2022-12-16T01:06:11;18.50;;;10.57;;
61840;SDS011;47773;53.174;6.614;2022-12-16T01:08:38;16.00;;;9.48;;
61840;SDS011;47773;53.174;6.614;2022-12-16T01:11:04;16.80;;;9.30;;
61840;SDS011;47773;53.174;6.614;2022-12-16T01:13:30;16.05;;;8.25;;
61840;SDS011;47773;53.174;6.614;2022-12-16T01:15:59;17.02;;;8.13;;
61840;SDS011;47773;53.174;6.614;2022-12-16T01:18:25;14.93;;;7.40;;
61840;SDS011;47773;53.174;6.614;2022-12-16T01:20:51;12.32;;;7.25;;
61840;SDS011;47773;53.174;6.614;2022-12-16T01:23:17;11.13;;;6.20;;
61840;SDS011;47773;53.174;6.614;2022-12-16T01:25:43;9.90;;;5.40;;
61840;SDS011;47773;53.174;6.614;2022-12-16T01:28:08;13.88;;;5.30;;
61840;SDS011;47773;53.174;6.614;2022-12-16T01:30:34;12.40;;;5.68;;
61840;SDS011;47773;53.174;6.614;2022-12-16T01:33:00;12.05;;;5.50;;
61840;SDS011;47773;53.174;6.614;2022-12-16T01:35:26;10.68;;;5.30;;
61840;SDS011;47773;53.174;6.614;2022-12-16T01:37:51;9.20;;;4.88;;
61840;SDS011;47773;53.174;6.614;2022-12-16T01:40:18;9.45;;;5.00;;
61840;SDS011;47773;53.174;6.614;2022-12-16T01:42:45;11.48;;;4.93;;
61840;SDS011;47773;53.174;6.614;2022-12-16T01:45:30;10.90;;;5.15;;
61840;SDS011;47773;53.174;6.614;2022-12-16T01:51:42;10.57;;;4.68;;
61840;SDS011;47773;53.174;6.614;2022-12-16T01:54:05;8.77;;;4.82;;
61840;SDS011;47773;53.174;6.614;2022-12-16T01:56:44;14.48;;;4.88;;
61840;SDS011;47773;53.174;6.614;2022-12-16T01:59:23;8.55;;;4.50;;
61840;SDS011;47773;53.174;6.614;2022-12-16T02:01:51;9.68;;;4.07;;
61840;SDS011;47773;53.174;6.614;2022-12-16T02:04:17;6.20;;;4.03;;
61840;SDS011;47773;53.174;6.614;2022-12-16T02:06:42;9.88;;;4.07;;
61840;SDS011;47773;53.174;6.614;2022-12-16T02:09:08;9.32;;;3.72;;
61840;SDS011;47773;53.174;6.614;2022-12-16T02:14:42;5.63;;;3.30;;
61840;SDS011;47773;53.174;6.614;2022-12-16T02:28:32;9.15;;;4.00;;
61840;SDS011;47773;53.174;6.614;2022-12-16T02:34:09;5.32;;;2.63;;
61840;SDS011;47773;53.174;6.614;2022-12-16T02:38:06;4.40;;;2.40;;
61840;SDS011;47773;53.174;6.614;2022-12-16T02:40:21;6.45;;;2.60;;
61840;SDS011;47773;53.174;6.614;2022-12-16T02:42:54;6.30;;;2.88;;
61840;SDS011;47773;53.174;6.614;2022-12-16T02:45:28;7.93;;;3.13;;
61840;SDS011;47773;53.174;6.614;2022-12-16T02:47:56;7.32;;;3.28;;
61840;SDS011;47773;53.174;6.614;2022-12-16T02:52:54;5.90;;;3.03;;
61840;SDS011;47773;53.174;6.614;2022-12-16T02:55:24;7.03;;;3.20;;
61840;SDS011;47773;53.174;6.614;2022-12-16T02:58:15;7.88;;;2.90;;
61840;SDS011;47773;53.174;6.614;2022-12-16T03:03:36;8.70;;;3.13;;
61840;SDS011;47773;53.174;6.614;2022-12-16T03:06:11;6.65;;;3.55;;
61840;SDS011;47773;53.174;6.614;2022-12-16T03:08:40;7.63;;;3.97;;
61840;SDS011;47773;53.174;6.614;2022-12-16T03:11:11;6.27;;;3.70;;
61840;SDS011;47773;53.174;6.614;2022-12-16T03:13:39;11.52;;;4.00;;
61840;SDS011;47773;53.174;6.614;2022-12-16T03:16:09;9.70;;;4.65;;
61840;SDS011;47773;53.174;6.614;2022-12-16T03:18:38;11.00;;;4.72;;
61840;SDS011;47773;53.174;6.614;2022-12-16T03:21:07;11.43;;;4.93;;
61840;SDS011;47773;53.174;6.614;2022-12-16T03:23:39;12.57;;;5.35;;
61840;SDS011;47773;53.174;6.614;2022-12-16T03:26:18;13.57;;;5.78;;
61840;SDS011;47773;53.174;6.614;2022-12-16T03:29:00;14.38;;;6.70;;
61840;SDS011;47773;53.174;6.614;2022-12-16T03:36:47;13.30;;;8.10;;
61840;SDS011;47773;53.174;6.614;2022-12-16T03:39:17;16.20;;;8.85;;
61840;SDS011;47773;53.174;6.614;2022-12-16T03:41:45;16.75;;;9.27;;
61840;SDS011;47773;53.174;6.614;2022-12-16T03:44:13;16.45;;;9.90;;
61840;SDS011;47773;53.174;6.614;2022-12-16T03:46:39;20.35;;;11.50;;
61840;SDS011;47773;53.174;6.614;2022-12-16T03:49:05;20.83;;;12.07;;
61840;SDS011;47773;53.174;6.614;2022-12-16T03:51:30;20.65;;;12.82;;
61840;SDS011;47773;53.174;6.614;2022-12-16T03:53:56;26.30;;;13.52;;
61840;SDS011;47773;53.174;6.614;2022-12-16T03:56:22;21.75;;;14.10;;
61840;SDS011;47773;53.174;6.614;2022-12-16T03:58:47;25.20;;;14.93;;
61840;SDS011;47773;53.174;6.614;2022-12-16T04:01:13;23.23;;;14.60;;
61840;SDS011;47773;53.174;6.614;2022-12-16T04:03:39;28.95;;;14.80;;
61840;SDS011;47773;53.174;6.614;2022-12-16T04:06:05;26.30;;;13.73;;
61840;SDS011;47773;53.174;6.614;2022-12-16T04:08:31;29.23;;;15.73;;
61840;SDS011;47773;53.174;6.614;2022-12-16T04:10:56;31.23;;;16.38;;
61840;SDS011;47773;53.174;6.614;2022-12-16T04:13:40;29.48;;;16.23;;
61840;SDS011;47773;53.174;6.614;2022-12-16T04:16:25;33.00;;;17.48;;
61840;SDS011;47773;53.174;6.614;2022-12-16T04:22:21;35.03;;;16.05;;
61840;SDS011;47773;53.174;6.614;2022-12-16T04:25:15;35.88;;;18.83;;
61840;SDS011;47773;53.174;6.614;2022-12-16T04:27:46;33.28;;;18.25;;
61840;SDS011;47773;53.174;6.614;2022-12-16T04:30:13;35.50;;;18.10;;
61840;SDS011;47773;53.174;6.614;2022-12-16T04:32:46;38.03;;;18.88;;
61840;SDS011;47773;53.174;6.614;2022-12-16T04:35:38;37.47;;;19.03;;
61840;SDS011;47773;53.174;6.614;2022-12-16T04:38:22;32.55;;;19.33;;
61840;SDS011;47773;53.174;6.614;2022-12-16T04:41:07;33.28;;;18.90;;
61840;SDS011;47773;53.174;6.614;2022-12-16T04:43:51;37.20;;;18.38;;
61840;SDS011;47773;53.174;6.614;2022-12-16T04:46:35;39.38;;;19.52;;
61840;SDS011;47773;53.174;6.614;2022-12-16T04:49:20;36.90;;;20.25;;
61840;SDS011;47773;53.174;6.614;2022-12-16T04:52:04;35.40;;;18.80;;
61840;SDS011;47773;53.174;6.614;2022-12-16T04:54:48;37.95;;;19.45;;
61840;SDS011;47773;53.174;6.614;2022-12-16T04:57:33;36.92;;;18.88;;
61840;SDS011;47773;53.174;6.614;2022-12-16T05:00:17;42.20;;;20.52;;
61840;SDS011;47773;53.174;6.614;2022-12-16T05:03:02;38.00;;;20.63;;
61840;SDS011;47773;53.174;6.614;2022-12-16T05:05:46;37.38;;;20.30;;
61840;SDS011;47773;53.174;6.614;2022-12-16T05:08:30;37.55;;;21.02;;
61840;SDS011;47773;53.174;6.614;2022-12-16T05:11:15;35.70;;;20.10;;
61840;SDS011;47773;53.174;6.614;2022-12-16T05:13:59;37.92;;;21.00;;
61840;SDS011;47773;53.174;6.614;2022-12-16T05:16:43;38.85;;;21.08;;
61840;SDS011;47773;53.174;6.614;2022-12-16T05:19:28;34.00;;;20.63;;
61840;SDS011;47773;53.174;6.614;2022-12-16T05:22:12;41.55;;;22.38;;
61840;SDS011;47773;53.174;6.614;2022-12-16T05:24:57;38.83;;;20.85;;
61840;SDS011;47773;53.174;6.614;2022-12-16T05:27:41;42.53;;;21.90;;
61840;SDS011;47773;53.174;6.614;2022-12-16T05:30:26;49.42;;;22.70;;
61840;SDS011;47773;53.174;6.614;2022-12-16T05:33:10;43.15;;;22.13;;
61840;SDS011;47773;53.174;6.614;2022-12-16T05:35:54;39.40;;;21.77;;
61840;SDS011;47773;53.174;6.614;2022-12-16T05:38:39;43.72;;;22.33;;
61840;SDS011;47773;53.174;6.614;2022-12-16T05:41:23;45.35;;;23.23;;
61840;SDS011;47773;53.174;6.614;2022-12-16T05:44:07;40.42;;;22.17;;
61840;SDS011;47773;53.174;6.614;2022-12-16T05:46:52;43.08;;;22.38;;
61840;SDS011;47773;53.174;6.614;2022-12-16T05:49:36;47.28;;;23.23;;
61840;SDS011;47773;53.174;6.614;2022-12-16T05:52:21;47.22;;;22.80;;
61840;SDS011;47773;53.174;6.614;2022-12-16T05:55:05;48.92;;;23.48;;
61840;SDS011;47773;53.174;6.614;2022-12-16T05:57:50;46.35;;;22.17;;
61840;SDS011;47773;53.174;6.614;2022-12-16T06:00:35;48.67;;;22.33;;
61840;SDS011;47773;53.174;6.614;2022-12-16T06:03:19;45.45;;;22.98;;
61840;SDS011;47773;53.174;6.614;2022-12-16T06:06:04;47.42;;;24.50;;
61840;SDS011;47773;53.174;6.614;2022-12-16T06:08:49;46.15;;;23.40;;
61840;SDS011;47773;53.174;6.614;2022-12-16T06:11:33;45.38;;;22.48;;
61840;SDS011;47773;53.174;6.614;2022-12-16T06:14:18;43.47;;;23.10;;
61840;SDS011;47773;53.174;6.614;2022-12-16T06:17:02;41.50;;;22.58;;
61840;SDS011;47773;53.174;6.614;2022-12-16T06:19:46;41.38;;;23.27;;
61840;SDS011;47773;53.174;6.614;2022-12-16T06:22:31;45.05;;;24.65;;
61840;SDS011;47773;53.174;6.614;2022-12-16T06:25:15;47.33;;;23.98;;
61840;SDS011;47773;53.174;6.614;2022-12-16T06:27:59;43.53;;;22.73;;
61840;SDS011;47773;53.174;6.614;2022-12-16T06:30:44;45.95;;;22.52;;
61840;SDS011;47773;53.174;6.614;2022-12-16T06:33:28;45.63;;;23.08;;
61840;SDS011;47773;53.174;6.614;2022-12-16T06:36:12;39.65;;;21.88;;
61840;SDS011;47773;53.174;6.614;2022-12-16T06:38:57;45.97;;;23.30;;
61840;SDS011;47773;53.174;6.614;2022-12-16T06:41:41;43.97;;;22.83;;
61840;SDS011;47773;53.174;6.614;2022-12-16T06:44:25;45.95;;;24.17;;
61840;SDS011;47773;53.174;6.614;2022-12-16T06:47:10;45.33;;;24.40;;
61840;SDS011;47773;53.174;6.614;2022-12-16T06:49:54;45.88;;;23.20;;
61840;SDS011;47773;53.174;6.614;2022-12-16T06:52:40;49.67;;;23.50;;
61840;SDS011;47773;53.174;6.614;2022-12-16T06:55:27;52.50;;;24.35;;
61840;SDS011;47773;53.174;6.614;2022-12-16T06:58:12;51.03;;;24.15;;
61840;SDS011;47773;53.174;6.614;2022-12-16T07:00:56;47.08;;;22.88;;
61840;SDS011;47773;53.174;6.614;2022-12-16T07:03:41;48.97;;;23.75;;
61840;SDS011;47773;53.174;6.614;2022-12-16T07:06:25;50.38;;;23.80;;
61840;SDS011;47773;53.174;6.614;2022-12-16T07:09:09;46.20;;;22.75;;
61840;SDS011;47773;53.174;6.614;2022-12-16T07:12:13;44.38;;;22.75;;
61840;SDS011;47773;53.174;6.614;2022-12-16T07:14:58;48.47;;;23.80;;
61840;SDS011;47773;53.174;6.614;2022-12-16T07:17:43;46.25;;;23.30;;
61840;SDS011;47773;53.174;6.614;2022-12-16T07:20:27;46.83;;;23.23;;
61840;SDS011;47773;53.174;6.614;2022-12-16T07:23:12;43.58;;;23.65;;
61840;SDS011;47773;53.174;6.614;2022-12-16T07:25:56;44.35;;;22.08;;
61840;SDS011;47773;53.174;6.614;2022-12-16T07:28:41;39.25;;;22.17;;
61840;SDS011;47773;53.174;6.614;2022-12-16T07:31:25;42.22;;;21.55;;
61840;SDS011;47773;53.174;6.614;2022-12-16T07:34:09;45.03;;;23.05;;
61840;SDS011;47773;53.174;6.614;2022-12-16T07:36:54;44.55;;;22.55;;
61840;SDS011;47773;53.174;6.614;2022-12-16T07:39:38;46.72;;;22.77;;
61840;SDS011;47773;53.174;6.614;2022-12-16T07:42:22;46.80;;;23.50;;
61840;SDS011;47773;53.174;6.614;2022-12-16T07:45:07;42.88;;;22.20;;
61840;SDS011;47773;53.174;6.614;2022-12-16T07:47:52;44.33;;;22.67;;
61840;SDS011;47773;53.174;6.614;2022-12-16T07:50:37;48.15;;;23.77;;
61840;SDS011;47773;53.174;6.614;2022-12-16T07:53:21;45.35;;;23.13;;
61840;SDS011;47773;53.174;6.614;2022-12-16T07:56:06;48.50;;;22.20;;
61840;SDS011;47773;53.174;6.614;2022-12-16T07:58:51;44.67;;;23.42;;
61840;SDS011;47773;53.174;6.614;2022-12-16T08:01:36;46.58;;;23.08;;
61840;SDS011;47773;53.174;6.614;2022-12-16T08:04:20;46.15;;;24.17;;
61840;SDS011;47773;53.174;6.614;2022-12-16T08:07:05;46.83;;;23.55;;
61840;SDS011;47773;53.174;6.614;2022-12-16T08:09:49;43.17;;;22.95;;
61840;SDS011;47773;53.174;6.614;2022-12-16T08:12:34;42.55;;;22.90;;
61840;SDS011;47773;53.174;6.614;2022-12-16T08:15:18;45.33;;;23.75;;
61840;SDS011;47773;53.174;6.614;2022-12-16T08:18:02;46.20;;;23.40;;
61840;SDS011;47773;53.174;6.614;2022-12-16T08:20:47;40.03;;;22.92;;
61840;SDS011;47773;53.174;6.614;2022-12-16T08:23:39;42.92;;;22.88;;
61840;SDS011;47773;53.174;6.614;2022-12-16T08:26:23;51.20;;;26.17;;
61840;SDS011;47773;53.174;6.614;2022-12-16T08:29:08;44.00;;;26.08;;
61840;SDS011;47773;53.174;6.614;2022-12-16T08:31:53;42.08;;;23.45;;
61840;SDS011;47773;53.174;6.614;2022-12-16T08:34:38;47.38;;;23.85;;
61840;SDS011;47773;53.174;6.614;2022-12-16T08:37:22;42.35;;;21.90;;
61840;SDS011;47773;53.174;6.614;2022-12-16T08:40:14;45.28;;;22.98;;
61840;SDS011;47773;53.174;6.614;2022-12-16T08:42:58;45.92;;;23.33;;
61840;SDS011;47773;53.174;6.614;2022-12-16T08:45:43;43.97;;;24.17;;
61840;SDS011;47773;53.174;6.614;2022-12-16T08:48:27;43.92;;;22.75;;
61840;SDS011;47773;53.174;6.614;2022-12-16T08:51:12;45.47;;;23.65;;
61840;SDS011;47773;53.174;6.614;2022-12-16T08:53:56;51.40;;;24.75;;
61840;SDS011;47773;53.174;6.614;2022-12-16T08:56:40;49.05;;;23.38;;
61840;SDS011;47773;53.174;6.614;2022-12-16T08:59:25;50.78;;;25.52;;
61840;SDS011;47773;53.174;6.614;2022-12-16T09:02:09;57.22;;;28.02;;
61840;SDS011;47773;53.174;6.614;2022-12-16T09:04:54;50.13;;;26.27;;
61840;SDS011;47773;53.174;6.614;2022-12-16T09:07:38;50.15;;;24.05;;
61840;SDS011;47773;53.174;6.614;2022-12-16T09:10:39;48.17;;;23.35;;
61840;SDS011;47773;53.174;6.614;2022-12-16T09:13:23;46.97;;;25.40;;
61840;SDS011;47773;53.174;6.614;2022-12-16T09:16:08;48.45;;;24.13;;
61840;SDS011;47773;53.174;6.614;2022-12-16T09:18:52;50.90;;;24.13;;
61840;SDS011;47773;53.174;6.614;2022-12-16T09:21:37;50.92;;;24.85;;
61840;SDS011;47773;53.174;6.614;2022-12-16T09:24:21;49.80;;;23.15;;
61840;SDS011;47773;53.174;6.614;2022-12-16T09:27:05;48.92;;;23.40;;
61840;SDS011;47773;53.174;6.614;2022-12-16T09:29:50;55.08;;;25.17;;
61840;SDS011;47773;53.174;6.614;2022-12-16T09:32:34;46.95;;;23.60;;
61840;SDS011;47773;53.174;6.614;2022-12-16T09:35:23;53.50;;;25.15;;
61840;SDS011;47773;53.174;6.614;2022-12-16T09:38:07;54.17;;;24.42;;
61840;SDS011;47773;53.174;6.614;2022-12-16T09:40:51;58.15;;;26.63;;
61840;SDS011;47773;53.174;6.614;2022-12-16T09:49:59;57.55;;;25.50;;
61840;SDS011;47773;53.174;6.614;2022-12-16T09:52:45;56.75;;;26.00;;
61840;SDS011;47773;53.174;6.614;2022-12-16T09:55:39;60.55;;;26.10;;
61840;SDS011;47773;53.174;6.614;2022-12-16T09:58:25;57.10;;;25.15;;
61840;SDS011;47773;53.174;6.614;2022-12-16T10:01:14;61.55;;;26.80;;
61840;SDS011;47773;53.174;6.614;2022-12-16T10:03:59;58.35;;;25.35;;
61840;SDS011;47773;53.174;6.614;2022-12-16T10:06:44;68.53;;;25.75;;
61840;SDS011;47773;53.174;6.614;2022-12-16T10:09:44;61.30;;;26.80;;
61840;SDS011;47773;53.174;6.614;2022-12-16T10:12:42;63.58;;;26.13;;
61840;SDS011;47773;53.174;6.614;2022-12-16T10:18:24;60.42;;;26.40;;
61840;SDS011;47773;53.174;6.614;2022-12-16T10:21:39;67.63;;;25.88;;
61840;SDS011;47773;53.174;6.614;2022-12-16T10:27:24;67.85;;;27.23;;
61840;SDS011;47773;53.174;6.614;2022-12-16T10:30:19;73.65;;;27.55;;
61840;SDS011;47773;53.174;6.614;2022-12-16T10:33:06;69.00;;;28.25;;
61840;SDS011;47773;53.174;6.614;2022-12-16T10:35:54;76.40;;;28.85;;
61840;SDS011;47773;53.174;6.614;2022-12-16T10:38:49;74.80;;;28.45;;
61840;SDS011;47773;53.174;6.614;2022-12-16T10:41:38;67.95;;;27.42;;
61840;SDS011;47773;53.174;6.614;2022-12-16T10:47:37;77.07;;;27.25;;
61840;SDS011;47773;53.174;6.614;2022-12-16T10:50:22;67.13;;;27.17;;
61840;SDS011;47773;53.174;6.614;2022-12-16T10:59:32;78.38;;;27.55;;
61840;SDS011;47773;53.174;6.614;2022-12-16T11:02:19;73.72;;;27.80;;
61840;SDS011;47773;53.174;6.614;2022-12-16T11:05:27;74.05;;;28.33;;
61840;SDS011;47773;53.174;6.614;2022-12-16T11:08:23;74.07;;;26.73;;
61840;SDS011;47773;53.174;6.614;2022-12-16T11:11:26;76.05;;;27.70;;
61840;SDS011;47773;53.174;6.614;2022-12-16T11:14:25;75.65;;;29.20;;
61840;SDS011;47773;53.174;6.614;2022-12-16T11:17:23;67.25;;;26.45;;
61840;SDS011;47773;53.174;6.614;2022-12-16T11:20:13;75.03;;;26.75;;
61840;SDS011;47773;53.174;6.614;2022-12-16T11:23:23;64.85;;;25.83;;
61840;SDS011;47773;53.174;6.614;2022-12-16T11:26:18;79.28;;;28.73;;
61840;SDS011;47773;53.174;6.614;2022-12-16T11:29:10;65.78;;;26.92;;
61840;SDS011;47773;53.174;6.614;2022-12-16T11:32:01;82.80;;;28.23;;
61840;SDS011;47773;53.174;6.614;2022-12-16T11:34:58;70.47;;;27.88;;
61840;SDS011;47773;53.174;6.614;2022-12-16T11:37:45;77.88;;;29.77;;
61840;SDS011;47773;53.174;6.614;2022-12-16T11:40:31;77.32;;;29.63;;
61840;SDS011;47773;53.174;6.614;2022-12-16T11:43:16;72.72;;;29.27;;
61840;SDS011;47773;53.174;6.614;2022-12-16T11:46:03;113.22;;;37.60;;
61840;SDS011;47773;53.174;6.614;2022-12-16T11:48:59;71.00;;;29.85;;
61840;SDS011;47773;53.174;6.614;2022-12-16T11:51:47;68.60;;;28.35;;
61840;SDS011;47773;53.174;6.614;2022-12-16T11:54:49;71.88;;;29.02;;
61840;SDS011;47773;53.174;6.614;2022-12-16T12:00:58;74.15;;;28.13;;
61840;SDS011;47773;53.174;6.614;2022-12-16T12:03:50;55.35;;;26.20;;
61840;SDS011;47773;53.174;6.614;2022-12-16T12:06:49;69.63;;;28.25;;
61840;SDS011;47773;53.174;6.614;2022-12-16T12:10:09;65.97;;;27.38;;
61840;SDS011;47773;53.174;6.614;2022-12-16T12:13:45;66.88;;;29.00;;
61840;SDS011;47773;53.174;6.614;2022-12-16T12:16:26;63.95;;;28.15;;
61840;SDS011;47773;53.174;6.614;2022-12-16T12:19:17;62.13;;;27.45;;
61840;SDS011;47773;53.174;6.614;2022-12-16T12:22:10;60.63;;;27.33;;
61840;SDS011;47773;53.174;6.614;2022-12-16T12:43:33;79.72;;;30.55;;
61840;SDS011;47773;53.174;6.614;2022-12-16T12:46:33;83.88;;;30.15;;
61840;SDS011;47773;53.174;6.614;2022-12-16T12:49:22;77.82;;;30.15;;
61840;SDS011;47773;53.174;6.614;2022-12-16T12:52:17;82.25;;;31.38;;
61840;SDS011;47773;53.174;6.614;2022-12-16T12:55:11;83.40;;;31.45;;
61840;SDS011;47773;53.174;6.614;2022-12-16T12:58:05;79.70;;;28.02;;
61840;SDS011;47773;53.174;6.614;2022-12-16T13:00:50;68.82;;;28.02;;
61840;SDS011;47773;53.174;6.614;2022-12-16T13:06:38;73.45;;;30.13;;
61840;SDS011;47773;53.174;6.614;2022-12-16T13:09:36;68.07;;;29.17;;
61840;SDS011;47773;53.174;6.614;2022-12-16T13:12:23;62.47;;;28.27;;
61840;SDS011;47773;53.174;6.614;2022-12-16T13:23:35;69.35;;;30.23;;
61840;SDS011;47773;53.174;6.614;2022-12-16T13:26:24;74.63;;;29.40;;
61840;SDS011;47773;53.174;6.614;2022-12-16T13:40:55;71.80;;;28.17;;
61840;SDS011;47773;53.174;6.614;2022-12-16T13:52:26;66.47;;;29.38;;
61840;SDS011;47773;53.174;6.614;2022-12-16T13:55:21;66.05;;;29.73;;
61840;SDS011;47773;53.174;6.614;2022-12-16T13:58:22;73.53;;;29.70;;
61840;SDS011;47773;53.174;6.614;2022-12-16T14:01:11;71.72;;;29.95;;
61840;SDS011;47773;53.174;6.614;2022-12-16T14:03:59;73.85;;;29.05;;
61840;SDS011;47773;53.174;6.614;2022-12-16T14:06:45;73.43;;;29.27;;
61840;SDS011;47773;53.174;6.614;2022-12-16T14:09:36;61.47;;;27.02;;
61840;SDS011;47773;53.174;6.614;2022-12-16T14:15:14;78.35;;;32.47;;
61840;SDS011;47773;53.174;6.614;2022-12-16T14:21:50;66.10;;;29.25;;
61840;SDS011;47773;53.174;6.614;2022-12-16T14:24:41;72.70;;;29.15;;
61840;SDS011;47773;53.174;6.614;2022-12-16T14:27:25;83.70;;;30.77;;
61840;SDS011;47773;53.174;6.614;2022-12-16T14:30:20;70.18;;;28.77;;
61840;SDS011;47773;53.174;6.614;2022-12-16T14:39:11;74.75;;;31.02;;
61840;SDS011;47773;53.174;6.614;2022-12-16T14:42:18;71.88;;;29.90;;
61840;SDS011;47773;53.174;6.614;2022-12-16T14:45:19;70.32;;;28.67;;
61840;SDS011;47773;53.174;6.614;2022-12-16T14:51:13;73.65;;;30.95;;
61840;SDS011;47773;53.174;6.614;2022-12-16T14:59:45;71.13;;;26.63;;
61840;SDS011;47773;53.174;6.614;2022-12-16T15:02:30;73.10;;;28.08;;
61840;SDS011;47773;53.174;6.614;2022-12-16T15:05:19;63.13;;;28.05;;
61840;SDS011;47773;53.174;6.614;2022-12-16T15:08:10;75.13;;;28.38;;
61840;SDS011;47773;53.174;6.614;2022-12-16T15:11:09;67.65;;;27.20;;
61840;SDS011;47773;53.174;6.614;2022-12-16T15:13:57;69.45;;;28.42;;
61840;SDS011;47773;53.174;6.614;2022-12-16T15:16:42;67.57;;;27.77;;
61840;SDS011;47773;53.174;6.614;2022-12-16T15:19:28;65.03;;;28.02;;
61840;SDS011;47773;53.174;6.614;2022-12-16T15:22:20;64.82;;;26.27;;
61840;SDS011;47773;53.174;6.614;2022-12-16T15:25:05;65.85;;;27.27;;
61840;SDS011;47773;53.174;6.614;2022-12-16T15:27:54;64.07;;;26.00;;
61840;SDS011;47773;53.174;6.614;2022-12-16T15:30:43;63.80;;;27.25;;
61840;SDS011;47773;53.174;6.614;2022-12-16T15:33:33;69.35;;;29.08;;
61840;SDS011;47773;53.174;6.614;2022-12-16T15:36:24;58.45;;;26.55;;
61840;SDS011;47773;53.174;6.614;2022-12-16T15:39:31;66.68;;;26.88;;
61840;SDS011;47773;53.174;6.614;2022-12-16T15:48:22;73.85;;;28.88;;
61840;SDS011;47773;53.174;6.614;2022-12-16T15:51:28;60.75;;;26.60;;
61840;SDS011;47773;53.174;6.614;2022-12-16T15:54:48;71.75;;;28.95;;
61840;SDS011;47773;53.174;6.614;2022-12-16T15:57:37;71.83;;;29.97;;
61840;SDS011;47773;53.174;6.614;2022-12-16T16:06:19;74.88;;;29.20;;
61840;SDS011;47773;53.174;6.614;2022-12-16T16:12:03;68.55;;;28.10;;
61840;SDS011;47773;53.174;6.614;2022-12-16T16:14:47;62.35;;;26.83;;
61840;SDS011;47773;53.174;6.614;2022-12-16T16:17:32;68.50;;;28.23;;
61840;SDS011;47773;53.174;6.614;2022-12-16T16:20:16;71.03;;;28.33;;
61840;SDS011;47773;53.174;6.614;2022-12-16T16:23:01;67.15;;;29.05;;
61840;SDS011;47773;53.174;6.614;2022-12-16T16:25:46;66.22;;;28.20;;
61840;SDS011;47773;53.174;6.614;2022-12-16T16:28:31;66.63;;;28.38;;
61840;SDS011;47773;53.174;6.614;2022-12-16T16:31:16;69.28;;;29.13;;
61840;SDS011;47773;53.174;6.614;2022-12-16T16:34:00;69.97;;;28.83;;
61840;SDS011;47773;53.174;6.614;2022-12-16T16:36:46;66.97;;;27.63;;
61840;SDS011;47773;53.174;6.614;2022-12-16T16:39:35;62.88;;;25.95;;
61840;SDS011;47773;53.174;6.614;2022-12-16T16:42:19;62.83;;;26.83;;
61840;SDS011;47773;53.174;6.614;2022-12-16T16:45:04;61.45;;;27.55;;
61840;SDS011;47773;53.174;6.614;2022-12-16T16:47:49;63.75;;;26.55;;
61840;SDS011;47773;53.174;6.614;2022-12-16T16:50:35;63.10;;;26.45;;
61840;SDS011;47773;53.174;6.614;2022-12-16T16:53:20;70.88;;;28.92;;
61840;SDS011;47773;53.174;6.614;2022-12-16T16:56:04;74.22;;;27.02;;
61840;SDS011;47773;53.174;6.614;2022-12-16T16:58:49;67.95;;;27.70;;
61840;SDS011;47773;53.174;6.614;2022-12-16T17:01:33;65.03;;;27.70;;
61840;SDS011;47773;53.174;6.614;2022-12-16T17:04:17;73.72;;;29.38;;
61840;SDS011;47773;53.174;6.614;2022-12-16T17:07:02;63.38;;;26.52;;
61840;SDS011;47773;53.174;6.614;2022-12-16T17:09:46;70.88;;;28.55;;
61840;SDS011;47773;53.174;6.614;2022-12-16T17:12:30;59.97;;;26.88;;
61840;SDS011;47773;53.174;6.614;2022-12-16T17:15:19;69.20;;;28.05;;
61840;SDS011;47773;53.174;6.614;2022-12-16T17:18:06;61.88;;;27.40;;
61840;SDS011;47773;53.174;6.614;2022-12-16T17:20:51;63.38;;;25.60;;
61840;SDS011;47773;53.174;6.614;2022-12-16T17:23:36;61.53;;;25.05;;
61840;SDS011;47773;53.174;6.614;2022-12-16T17:26:20;65.13;;;26.83;;
61840;SDS011;47773;53.174;6.614;2022-12-16T17:29:05;61.15;;;26.60;;
61840;SDS011;47773;53.174;6.614;2022-12-16T17:31:49;63.10;;;25.55;;
61840;SDS011;47773;53.174;6.614;2022-12-16T17:34:34;67.05;;;25.17;;
61840;SDS011;47773;53.174;6.614;2022-12-16T17:37:19;61.40;;;25.30;;
61840;SDS011;47773;53.174;6.614;2022-12-16T17:40:04;59.05;;;24.73;;
61840;SDS011;47773;53.174;6.614;2022-12-16T17:42:48;67.35;;;26.05;;
61840;SDS011;47773;53.174;6.614;2022-12-16T17:45:33;67.22;;;26.75;;
61840;SDS011;47773;53.174;6.614;2022-12-16T17:48:17;66.05;;;27.48;;
61840;SDS011;47773;53.174;6.614;2022-12-16T17:51:02;65.97;;;26.40;;
61840;SDS011;47773;53.174;6.614;2022-12-16T17:53:46;60.05;;;25.02;;
61840;SDS011;47773;53.174;6.614;2022-12-16T17:56:31;66.22;;;26.67;;
61840;SDS011;47773;53.174;6.614;2022-12-16T17:59:15;64.55;;;25.98;;
61840;SDS011;47773;53.174;6.614;2022-12-16T18:01:59;73.50;;;27.52;;
61840;SDS011;47773;53.174;6.614;2022-12-16T18:04:44;67.07;;;26.67;;
61840;SDS011;47773;53.174;6.614;2022-12-16T18:07:28;67.60;;;25.40;;
61840;SDS011;47773;53.174;6.614;2022-12-16T18:10:12;59.60;;;24.73;;
61840;SDS011;47773;53.174;6.614;2022-12-16T18:12:57;60.53;;;23.42;;
61840;SDS011;47773;53.174;6.614;2022-12-16T18:15:41;56.30;;;24.27;;
61840;SDS011;47773;53.174;6.614;2022-12-16T18:18:25;69.20;;;24.08;;
61840;SDS011;47773;53.174;6.614;2022-12-16T18:21:30;65.85;;;24.40;;